createdAt,value
2023-03-30T00:00:00.820Z,1.02
2023-03-30T00:06:06.213Z,0.70
2023-03-30T00:12:09.793Z,0.70
2023-03-30T00:18:14.582Z,0.93
2023-03-30T00:24:18.045Z,0.63
2023-03-30T00:30:21.921Z,0.90
2023-03-30T00:36:26.800Z,0.75
2023-03-30T00:42:30.251Z,0.75
2023-03-30T00:48:34.636Z,0.85
2023-03-30T00:54:40.499Z,0.88
2023-03-30T01:00:47.117Z,0.90
2023-03-30T01:06:52.235Z,0.80
2023-03-30T01:12:57.049Z,1.00
2023-03-30T01:19:07.064Z,0.85
2023-03-30T01:25:21.983Z,0.80
2023-03-30T01:31:43.080Z,0.80
2023-03-30T01:38:00.933Z,1.00
2023-03-30T01:44:09.958Z,1.00
2023-03-30T01:50:15.648Z,1.00
2023-03-30T01:56:22.198Z,1.10
2023-03-30T02:02:29.218Z,1.08
2023-03-30T02:08:34.575Z,1.00
2023-03-30T02:14:38.532Z,1.10
2023-03-30T02:20:43.850Z,1.23
2023-03-30T02:26:48.226Z,1.40
2023-03-30T02:32:54.150Z,1.40
2023-03-30T02:39:05.159Z,1.10
2023-03-30T02:45:18.040Z,1.10
2023-03-30T02:51:29.888Z,1.27
2023-03-30T02:57:37.072Z,1.17
2023-03-30T03:03:42.780Z,1.40
2023-03-30T03:09:46.625Z,1.50
2023-03-30T03:15:55.631Z,1.50
2023-03-30T03:21:59.090Z,1.33
2023-03-30T03:28:02.539Z,1.20
2023-03-30T03:34:07.758Z,1.30
2023-03-30T03:40:12.074Z,1.17
2023-03-30T03:46:16.184Z,1.38
2023-03-30T03:52:20.983Z,1.10
2023-03-30T03:58:24.692Z,1.23
2023-03-30T04:04:28.764Z,1.52
2023-03-30T04:10:33.656Z,1.20
2023-03-30T04:16:37.369Z,1.05
2023-03-30T04:22:42.790Z,1.17
2023-03-30T04:28:48.028Z,1.50
2023-03-30T04:34:54.762Z,1.48
2023-03-30T04:40:58.893Z,1.45
2023-03-30T04:47:03.949Z,1.23
2023-03-30T04:53:07.548Z,1.20
2023-03-30T04:59:11.043Z,1.88
2023-03-30T05:05:16.004Z,1.40
2023-03-30T05:11:19.430Z,2.25
2023-03-30T05:17:22.852Z,2.13
2023-03-30T05:23:28.039Z,1.50
2023-03-30T05:29:31.876Z,2.13
2023-03-30T05:35:35.448Z,2.50
2023-03-30T05:41:40.854Z,2.15
2023-03-30T05:47:44.371Z,1.95
2023-03-30T05:53:47.959Z,1.98
2023-03-30T05:59:52.780Z,2.00
2023-03-30T06:05:56.229Z,1.80
2023-03-30T06:12:00.446Z,2.83
2023-03-30T06:18:06.026Z,2.95
2023-03-30T06:24:09.576Z,2.58
2023-03-30T06:30:13.568Z,2.15
2023-03-30T06:36:18.922Z,2.40
2023-03-30T06:42:22.410Z,2.25
2023-03-30T06:48:26.738Z,2.55
2023-03-30T06:54:31.851Z,2.80
2023-03-30T07:00:35.659Z,2.28
2023-03-30T07:06:39.152Z,2.08
2023-03-30T07:12:43.948Z,2.47
2023-03-30T07:18:47.369Z,3.33
2023-03-30T07:24:51.581Z,1.98
2023-03-30T07:30:57.063Z,2.85
2023-03-30T07:37:01.802Z,3.10
2023-03-30T07:43:05.675Z,3.10
2023-03-30T07:49:10.757Z,2.33
2023-03-30T07:55:14.427Z,2.78
2023-03-30T08:01:17.858Z,3.58
2023-03-30T08:07:22.726Z,2.78
2023-03-30T08:13:26.487Z,3.10
2023-03-30T08:19:30.072Z,2.65
2023-03-30T08:25:34.961Z,2.92
2023-03-30T08:31:38.389Z,2.42
2023-03-30T08:37:42.566Z,2.65
2023-03-30T08:43:52.753Z,3.13
2023-03-30T08:49:59.786Z,3.28
2023-03-30T08:56:04.791Z,2.55
2023-03-30T09:02:15.841Z,2.83
2023-03-30T09:08:21.673Z,3.13
2023-03-30T09:14:29.090Z,2.00
2023-03-30T09:20:35.738Z,1.98
2023-03-30T09:26:43.716Z,2.25
2023-03-30T09:32:51.303Z,2.65
2023-03-30T09:38:56.225Z,2.60
2023-03-30T09:45:01.791Z,2.30
2023-03-30T09:51:05.674Z,3.78
2023-03-30T09:57:23.873Z,2.47
2023-03-30T10:03:28.079Z,2.75
2023-03-30T10:09:31.897Z,2.67
2023-03-30T10:15:38.537Z,2.50
2023-03-30T10:21:47.083Z,3.40
2023-03-30T10:27:53.543Z,2.70
2023-03-30T10:33:59.191Z,2.40
2023-03-30T10:40:05.422Z,2.80
2023-03-30T10:46:19.350Z,3.65
2023-03-30T10:52:28.989Z,2.72
2023-03-30T10:58:40.139Z,2.50
2023-03-30T11:04:45.242Z,2.85
2023-03-30T11:10:51.792Z,2.47
2023-03-30T11:16:57.804Z,2.55
2023-03-30T11:23:05.246Z,2.88
2023-03-30T11:29:18.240Z,2.38
2023-03-30T11:35:27.314Z,3.30
2023-03-30T11:41:36.332Z,2.20
2023-03-30T11:47:49.381Z,3.13
2023-03-30T11:53:55.582Z,3.42
2023-03-30T12:00:09.812Z,2.15
2023-03-30T12:06:22.383Z,2.47
2023-03-30T12:12:28.816Z,2.22
2023-03-30T12:18:34.921Z,1.80
2023-03-30T12:24:42.049Z,1.38
2023-03-30T12:30:50.897Z,2.28
2023-03-30T12:36:56.300Z,1.52
2023-03-30T12:43:05.525Z,1.80
2023-03-30T12:49:11.024Z,1.77
2023-03-30T12:55:19.133Z,2.28
2023-03-30T13:01:28.866Z,2.03
2023-03-30T13:07:36.421Z,2.38
2023-03-30T13:13:51.830Z,2.03
2023-03-30T13:20:26.541Z,2.00
2023-03-30T13:26:43.281Z,1.75
2023-03-30T13:32:51.498Z,1.80
2023-03-30T13:39:04.041Z,1.88
2023-03-30T13:45:15.043Z,2.55
2023-03-30T13:51:21.301Z,1.63
2023-03-30T13:57:27.326Z,1.33
2023-03-30T14:03:33.689Z,2.15
2023-03-30T14:09:37.127Z,1.85
2023-03-30T14:15:42.163Z,1.13
2023-03-30T14:21:47.807Z,1.60
2023-03-30T14:27:51.512Z,1.38
2023-03-30T14:33:55.321Z,1.55
2023-03-30T14:40:00.362Z,1.25
2023-03-30T14:46:06.700Z,2.10
2023-03-30T14:52:11.317Z,1.30
2023-03-30T14:58:17.359Z,1.50
2023-03-30T15:04:22.337Z,1.95
2023-03-30T15:10:27.781Z,1.73
2023-03-30T15:16:34.236Z,1.90
2023-03-30T15:22:39.118Z,1.88
2023-03-30T15:28:45.842Z,1.98
2023-03-30T15:35:01.052Z,1.85
2023-03-30T15:41:05.513Z,2.20
2023-03-30T15:47:12.306Z,2.80
2023-03-30T15:53:21.035Z,1.80
2023-03-30T15:59:32.553Z,1.80
2023-03-30T16:05:36.143Z,1.98
2023-03-30T16:11:41.382Z,1.55
2023-03-30T16:17:45.021Z,2.53
2023-03-30T16:23:48.733Z,1.90
2023-03-30T16:29:53.839Z,2.75
2023-03-30T16:35:57.611Z,2.05
2023-03-30T16:42:01.466Z,1.90
2023-03-30T16:48:06.597Z,3.83
2023-03-30T16:54:19.794Z,1.88
2023-03-30T17:00:32.178Z,5.00
2023-03-30T17:06:37.145Z,3.20
2023-03-30T17:12:41.792Z,2.40
2023-03-30T17:18:45.713Z,2.13
2023-03-30T17:24:50.533Z,2.33
2023-03-30T17:30:54.852Z,2.45
2023-03-30T17:36:58.649Z,1.92
2023-03-30T17:43:03.535Z,2.15
2023-03-30T17:49:14.286Z,2.17
2023-03-30T17:55:17.879Z,2.65
2023-03-30T18:01:22.689Z,2.05
2023-03-30T18:07:26.190Z,3.67
2023-03-30T18:13:30.604Z,2.28
2023-03-30T18:19:35.545Z,3.28
2023-03-30T18:25:39.281Z,2.10
2023-03-30T18:31:42.889Z,2.08
2023-03-30T18:37:50.492Z,3.20
2023-03-30T18:43:54.060Z,3.78
2023-03-30T18:49:57.602Z,2.97
2023-03-30T18:56:03.490Z,3.00
2023-03-30T19:02:07.327Z,2.63
2023-03-30T19:08:12.564Z,3.22
2023-03-30T19:14:18.119Z,3.78
2023-03-30T19:20:22.527Z,3.38
2023-03-30T19:26:26.041Z,2.85
2023-03-30T19:32:33.307Z,3.03
2023-03-30T19:38:37.250Z,2.85
2023-03-30T19:44:40.779Z,3.38
2023-03-30T19:50:45.962Z,6.57
2023-03-30T19:56:51.416Z,5.00
2023-03-30T20:02:56.529Z,3.15
2023-03-30T20:09:01.522Z,3.42
2023-03-30T20:15:08.466Z,3.17
2023-03-30T20:21:11.877Z,3.15
2023-03-30T20:27:16.965Z,5.45
2023-03-30T20:33:20.543Z,4.05
2023-03-30T20:39:27.300Z,4.55
2023-03-30T20:45:32.598Z,4.20
2023-03-30T20:51:38.941Z,3.63
2023-03-30T20:57:43.741Z,2.65
2023-03-30T21:03:50.208Z,2.70
2023-03-30T21:09:53.932Z,2.38
2023-03-30T21:15:58.476Z,2.17
2023-03-30T21:22:03.318Z,2.83
2023-03-30T21:28:07.087Z,2.15
2023-03-30T21:34:11.521Z,1.75
2023-03-30T21:40:16.360Z,2.10
2023-03-30T21:46:21.028Z,2.22
2023-03-30T21:52:24.500Z,1.98
2023-03-30T21:58:29.627Z,2.00
2023-03-30T22:04:33.004Z,2.28
2023-03-30T22:10:36.527Z,2.25
2023-03-30T22:16:42.939Z,2.15
2023-03-30T22:22:46.662Z,2.40
2023-03-30T22:28:50.125Z,1.60
2023-03-30T22:34:54.943Z,1.50
2023-03-30T22:41:05.470Z,1.88
2023-03-30T22:47:10.722Z,1.45
2023-03-30T22:53:15.503Z,1.42
2023-03-30T22:59:18.967Z,1.90
2023-03-30T23:05:23.340Z,1.70
2023-03-30T23:11:29.080Z,1.48
2023-03-30T23:17:35.796Z,1.67
2023-03-30T23:23:39.587Z,1.30
2023-03-30T23:29:44.540Z,1.70
2023-03-30T23:35:50.921Z,1.83
2023-03-30T23:41:54.407Z,1.38
2023-03-30T23:47:59.610Z,1.70
2023-03-30T23:54:06.338Z,1.30
